sensor_id;sensor_type;location;lat;lon;timestamp;P1;durP1;ratioP1;P2;durP2;ratioP2
52494;SDS011;38405;53.212;5.660;2023-03-02T00:01:17;15.95;;;11.10;;
52494;SDS011;38405;53.212;5.660;2023-03-02T00:03:44;13.68;;;10.00;;
52494;SDS011;38405;53.212;5.660;2023-03-02T00:06:10;14.63;;;10.95;;
52494;SDS011;38405;53.212;5.660;2023-03-02T00:08:36;16.85;;;12.52;;
52494;SDS011;38405;53.212;5.660;2023-03-02T00:11:05;19.00;;;12.93;;
52494;SDS011;38405;53.212;5.660;2023-03-02T00:13:31;21.65;;;15.13;;
52494;SDS011;38405;53.212;5.660;2023-03-02T00:15:59;16.23;;;12.48;;
52494;SDS011;38405;53.212;5.660;2023-03-02T00:18:25;18.85;;;12.15;;
52494;SDS011;38405;53.212;5.660;2023-03-02T00:20:52;19.75;;;12.68;;
52494;SDS011;38405;53.212;5.660;2023-03-02T00:23:17;16.08;;;11.80;;
52494;SDS011;38405;53.212;5.660;2023-03-02T00:25:44;20.60;;;13.43;;
52494;SDS011;38405;53.212;5.660;2023-03-02T00:28:10;16.45;;;11.40;;
52494;SDS011;38405;53.212;5.660;2023-03-02T00:30:39;16.63;;;12.52;;
52494;SDS011;38405;53.212;5.660;2023-03-02T00:33:04;17.40;;;12.65;;
52494;SDS011;38405;53.212;5.660;2023-03-02T00:35:30;15.88;;;12.15;;
52494;SDS011;38405;53.212;5.660;2023-03-02T00:38:00;15.70;;;11.50;;
52494;SDS011;38405;53.212;5.660;2023-03-02T00:40:26;16.30;;;12.10;;
52494;SDS011;38405;53.212;5.660;2023-03-02T00:42:51;15.52;;;11.35;;
52494;SDS011;38405;53.212;5.660;2023-03-02T00:45:17;15.90;;;12.07;;
52494;SDS011;38405;53.212;5.660;2023-03-02T00:47:42;16.95;;;12.18;;
52494;SDS011;38405;53.212;5.660;2023-03-02T00:50:08;15.27;;;11.35;;
52494;SDS011;38405;53.212;5.660;2023-03-02T00:52:37;21.83;;;13.13;;
52494;SDS011;38405;53.212;5.660;2023-03-02T00:55:03;15.55;;;11.93;;
52494;SDS011;38405;53.212;5.660;2023-03-02T00:57:33;11.40;;;8.57;;
52494;SDS011;38405;53.212;5.660;2023-03-02T00:59:59;13.38;;;9.88;;
52494;SDS011;38405;53.212;5.660;2023-03-02T01:02:24;11.60;;;7.35;;
52494;SDS011;38405;53.212;5.660;2023-03-02T01:04:50;9.50;;;7.30;;
52494;SDS011;38405;53.212;5.660;2023-03-02T01:07:19;13.40;;;8.48;;
52494;SDS011;38405;53.212;5.660;2023-03-02T01:09:50;12.15;;;7.32;;
52494;SDS011;38405;53.212;5.660;2023-03-02T01:12:16;9.38;;;7.47;;
52494;SDS011;38405;53.212;5.660;2023-03-02T01:14:44;10.32;;;7.20;;
52494;SDS011;38405;53.212;5.660;2023-03-02T01:17:12;13.77;;;8.50;;
52494;SDS011;38405;53.212;5.660;2023-03-02T01:19:38;10.18;;;8.02;;
52494;SDS011;38405;53.212;5.660;2023-03-02T01:22:05;10.63;;;7.43;;
52494;SDS011;38405;53.212;5.660;2023-03-02T01:24:32;12.60;;;8.15;;
52494;SDS011;38405;53.212;5.660;2023-03-02T01:26:58;14.35;;;7.97;;
52494;SDS011;38405;53.212;5.660;2023-03-02T01:29:23;12.57;;;8.45;;
52494;SDS011;38405;53.212;5.660;2023-03-02T01:31:49;13.32;;;9.40;;
52494;SDS011;38405;53.212;5.660;2023-03-02T01:34:15;13.57;;;9.18;;
52494;SDS011;38405;53.212;5.660;2023-03-02T01:36:41;17.55;;;9.90;;
52494;SDS011;38405;53.212;5.660;2023-03-02T01:39:09;16.92;;;9.68;;
52494;SDS011;38405;53.212;5.660;2023-03-02T01:41:39;13.48;;;9.07;;
52494;SDS011;38405;53.212;5.660;2023-03-02T01:44:11;17.05;;;9.85;;
52494;SDS011;38405;53.212;5.660;2023-03-02T01:47:11;13.63;;;10.00;;
52494;SDS011;38405;53.212;5.660;2023-03-02T01:49:43;13.23;;;9.02;;
52494;SDS011;38405;53.212;5.660;2023-03-02T01:52:12;10.57;;;8.23;;
52494;SDS011;38405;53.212;5.660;2023-03-02T01:54:39;11.60;;;8.75;;
52494;SDS011;38405;53.212;5.660;2023-03-02T01:57:06;12.10;;;8.20;;
52494;SDS011;38405;53.212;5.660;2023-03-02T01:59:34;15.25;;;9.52;;
52494;SDS011;38405;53.212;5.660;2023-03-02T02:02:04;13.30;;;8.88;;
52494;SDS011;38405;53.212;5.660;2023-03-02T02:04:31;14.55;;;10.48;;
52494;SDS011;38405;53.212;5.660;2023-03-02T02:07:03;10.25;;;8.32;;
52494;SDS011;38405;53.212;5.660;2023-03-02T02:09:47;12.52;;;8.68;;
52494;SDS011;38405;53.212;5.660;2023-03-02T02:12:20;15.77;;;9.50;;
52494;SDS011;38405;53.212;5.660;2023-03-02T02:14:49;14.10;;;10.63;;
52494;SDS011;38405;53.212;5.660;2023-03-02T02:17:19;17.10;;;10.88;;
52494;SDS011;38405;53.212;5.660;2023-03-02T02:32:10;15.13;;;9.68;;
52494;SDS011;38405;53.212;5.660;2023-03-02T02:34:28;15.90;;;9.50;;
52494;SDS011;38405;53.212;5.660;2023-03-02T02:37:15;12.98;;;8.60;;
52494;SDS011;38405;53.212;5.660;2023-03-02T02:40:02;13.65;;;9.48;;
52494;SDS011;38405;53.212;5.660;2023-03-02T02:42:33;11.80;;;8.95;;
52494;SDS011;38405;53.212;5.660;2023-03-02T02:45:03;12.38;;;8.75;;
52494;SDS011;38405;53.212;5.660;2023-03-02T02:47:34;12.82;;;8.30;;
52494;SDS011;38405;53.212;5.660;2023-03-02T02:50:00;11.45;;;8.43;;
52494;SDS011;38405;53.212;5.660;2023-03-02T02:52:26;10.15;;;7.60;;
52494;SDS011;38405;53.212;5.660;2023-03-02T02:54:54;9.90;;;7.43;;
52494;SDS011;38405;53.212;5.660;2023-03-02T02:57:22;16.00;;;8.02;;
52494;SDS011;38405;53.212;5.660;2023-03-02T02:59:58;9.15;;;7.18;;
52494;SDS011;38405;53.212;5.660;2023-03-02T03:02:26;12.07;;;7.43;;
52494;SDS011;38405;53.212;5.660;2023-03-02T03:04:54;13.68;;;7.00;;
52494;SDS011;38405;53.212;5.660;2023-03-02T03:07:26;11.07;;;7.65;;
52494;SDS011;38405;53.212;5.660;2023-03-02T03:12:25;14.60;;;8.23;;
52494;SDS011;38405;53.212;5.660;2023-03-02T03:14:53;12.23;;;8.05;;
52494;SDS011;38405;53.212;5.660;2023-03-02T03:17:19;13.25;;;7.90;;
52494;SDS011;38405;53.212;5.660;2023-03-02T03:19:45;12.05;;;8.48;;
52494;SDS011;38405;53.212;5.660;2023-03-02T03:22:14;16.88;;;9.82;;
52494;SDS011;38405;53.212;5.660;2023-03-02T03:24:41;20.55;;;11.07;;
52494;SDS011;38405;53.212;5.660;2023-03-02T03:27:08;15.40;;;10.65;;
52494;SDS011;38405;53.212;5.660;2023-03-02T03:29:38;13.77;;;8.68;;
52494;SDS011;38405;53.212;5.660;2023-03-02T03:32:08;15.88;;;8.95;;
52494;SDS011;38405;53.212;5.660;2023-03-02T03:34:34;15.40;;;9.95;;
52494;SDS011;38405;53.212;5.660;2023-03-02T03:37:04;19.23;;;11.27;;
52494;SDS011;38405;53.212;5.660;2023-03-02T03:39:32;16.83;;;11.02;;
52494;SDS011;38405;53.212;5.660;2023-03-02T03:41:58;18.33;;;11.35;;
52494;SDS011;38405;53.212;5.660;2023-03-02T03:44:23;15.05;;;10.93;;
52494;SDS011;38405;53.212;5.660;2023-03-02T03:46:49;14.15;;;9.43;;
52494;SDS011;38405;53.212;5.660;2023-03-02T03:49:15;21.65;;;12.30;;
52494;SDS011;38405;53.212;5.660;2023-03-02T03:51:41;19.70;;;13.07;;
52494;SDS011;38405;53.212;5.660;2023-03-02T03:54:07;23.33;;;12.93;;
52494;SDS011;38405;53.212;5.660;2023-03-02T03:56:38;26.00;;;13.60;;
52494;SDS011;38405;53.212;5.660;2023-03-02T03:59:06;24.55;;;14.20;;
52494;SDS011;38405;53.212;5.660;2023-03-02T04:04:04;21.38;;;13.60;;
52494;SDS011;38405;53.212;5.660;2023-03-02T04:06:30;25.80;;;13.90;;
52494;SDS011;38405;53.212;5.660;2023-03-02T04:08:56;22.52;;;14.82;;
52494;SDS011;38405;53.212;5.660;2023-03-02T04:11:26;25.83;;;14.80;;
52494;SDS011;38405;53.212;5.660;2023-03-02T04:13:52;24.00;;;15.45;;
52494;SDS011;38405;53.212;5.660;2023-03-02T04:16:18;25.63;;;15.00;;
52494;SDS011;38405;53.212;5.660;2023-03-02T04:18:44;20.60;;;14.10;;
52494;SDS011;38405;53.212;5.660;2023-03-02T04:21:09;25.50;;;16.48;;
52494;SDS011;38405;53.212;5.660;2023-03-02T04:23:35;24.83;;;15.40;;
52494;SDS011;38405;53.212;5.660;2023-03-02T04:26:00;22.92;;;14.27;;
52494;SDS011;38405;53.212;5.660;2023-03-02T04:28:30;26.15;;;16.13;;
52494;SDS011;38405;53.212;5.660;2023-03-02T04:30:56;29.40;;;18.98;;
52494;SDS011;38405;53.212;5.660;2023-03-02T04:33:22;34.35;;;17.20;;
52494;SDS011;38405;53.212;5.660;2023-03-02T04:35:47;33.42;;;19.92;;
52494;SDS011;38405;53.212;5.660;2023-03-02T04:38:13;30.23;;;17.17;;
52494;SDS011;38405;53.212;5.660;2023-03-02T04:40:39;28.48;;;18.83;;
52494;SDS011;38405;53.212;5.660;2023-03-02T04:43:05;27.52;;;16.88;;
52494;SDS011;38405;53.212;5.660;2023-03-02T04:45:30;28.10;;;18.67;;
52494;SDS011;38405;53.212;5.660;2023-03-02T04:47:56;28.50;;;18.63;;
52494;SDS011;38405;53.212;5.660;2023-03-02T04:50:22;29.33;;;16.88;;
52494;SDS011;38405;53.212;5.660;2023-03-02T04:52:48;26.27;;;18.08;;
52494;SDS011;38405;53.212;5.660;2023-03-02T04:55:16;27.02;;;16.73;;
52494;SDS011;38405;53.212;5.660;2023-03-02T04:57:47;28.80;;;17.98;;
52494;SDS011;38405;53.212;5.660;2023-03-02T05:00:13;27.63;;;18.27;;
52494;SDS011;38405;53.212;5.660;2023-03-02T05:02:40;27.42;;;17.13;;
52494;SDS011;38405;53.212;5.660;2023-03-02T05:05:05;31.23;;;18.98;;
52494;SDS011;38405;53.212;5.660;2023-03-02T05:07:31;29.45;;;18.50;;
52494;SDS011;38405;53.212;5.660;2023-03-02T05:09:57;31.27;;;19.33;;
52494;SDS011;38405;53.212;5.660;2023-03-02T05:12:23;30.40;;;19.77;;
52494;SDS011;38405;53.212;5.660;2023-03-02T05:14:49;27.70;;;17.30;;
52494;SDS011;38405;53.212;5.660;2023-03-02T05:17:14;26.70;;;16.58;;
52494;SDS011;38405;53.212;5.660;2023-03-02T05:19:40;30.90;;;20.50;;
52494;SDS011;38405;53.212;5.660;2023-03-02T05:22:06;34.25;;;20.80;;
52494;SDS011;38405;53.212;5.660;2023-03-02T05:24:35;30.80;;;18.00;;
52494;SDS011;38405;53.212;5.660;2023-03-02T05:27:01;33.58;;;20.05;;
52494;SDS011;38405;53.212;5.660;2023-03-02T05:29:26;40.22;;;21.02;;
52494;SDS011;38405;53.212;5.660;2023-03-02T05:31:52;35.67;;;20.52;;
52494;SDS011;38405;53.212;5.660;2023-03-02T05:34:18;34.03;;;21.17;;
52494;SDS011;38405;53.212;5.660;2023-03-02T05:36:44;34.72;;;21.70;;
52494;SDS011;38405;53.212;5.660;2023-03-02T05:39:10;36.58;;;22.38;;
52494;SDS011;38405;53.212;5.660;2023-03-02T05:41:36;35.63;;;20.77;;
52494;SDS011;38405;53.212;5.660;2023-03-02T05:44:02;35.08;;;21.13;;
52494;SDS011;38405;53.212;5.660;2023-03-02T05:46:33;34.58;;;19.60;;
52494;SDS011;38405;53.212;5.660;2023-03-02T05:49:02;36.83;;;21.13;;
52494;SDS011;38405;53.212;5.660;2023-03-02T05:51:28;39.10;;;22.20;;
52494;SDS011;38405;53.212;5.660;2023-03-02T05:53:53;36.33;;;23.05;;
52494;SDS011;38405;53.212;5.660;2023-03-02T05:56:19;45.10;;;25.13;;
52494;SDS011;38405;53.212;5.660;2023-03-02T05:58:46;40.03;;;21.10;;
52494;SDS011;38405;53.212;5.660;2023-03-02T06:01:15;45.13;;;25.23;;
52494;SDS011;38405;53.212;5.660;2023-03-02T06:03:41;39.97;;;24.45;;
52494;SDS011;38405;53.212;5.660;2023-03-02T06:06:10;40.42;;;23.52;;
52494;SDS011;38405;53.212;5.660;2023-03-02T06:08:40;42.70;;;24.42;;
52494;SDS011;38405;53.212;5.660;2023-03-02T06:11:06;46.00;;;27.50;;
52494;SDS011;38405;53.212;5.660;2023-03-02T06:13:32;50.60;;;27.70;;
52494;SDS011;38405;53.212;5.660;2023-03-02T06:15:58;60.45;;;31.63;;
52494;SDS011;38405;53.212;5.660;2023-03-02T06:18:26;56.63;;;28.67;;
52494;SDS011;38405;53.212;5.660;2023-03-02T06:20:52;62.13;;;31.55;;
52494;SDS011;38405;53.212;5.660;2023-03-02T06:23:17;61.95;;;33.30;;
52494;SDS011;38405;53.212;5.660;2023-03-02T06:25:48;59.55;;;31.63;;
52494;SDS011;38405;53.212;5.660;2023-03-02T06:28:15;71.00;;;35.83;;
52494;SDS011;38405;53.212;5.660;2023-03-02T06:30:43;68.53;;;33.83;;
52494;SDS011;38405;53.212;5.660;2023-03-02T06:33:12;71.20;;;34.28;;
52494;SDS011;38405;53.212;5.660;2023-03-02T06:35:39;65.38;;;33.25;;
52494;SDS011;38405;53.212;5.660;2023-03-02T06:38:06;55.17;;;27.58;;
52494;SDS011;38405;53.212;5.660;2023-03-02T06:40:32;66.30;;;31.35;;
52494;SDS011;38405;53.212;5.660;2023-03-02T06:42:58;75.20;;;34.75;;
52494;SDS011;38405;53.212;5.660;2023-03-02T06:45:24;64.65;;;31.33;;
52494;SDS011;38405;53.212;5.660;2023-03-02T06:47:51;54.45;;;26.05;;
52494;SDS011;38405;53.212;5.660;2023-03-02T06:50:18;74.35;;;34.03;;
52494;SDS011;38405;53.212;5.660;2023-03-02T06:52:44;70.88;;;32.22;;
52494;SDS011;38405;53.212;5.660;2023-03-02T06:55:09;60.45;;;28.58;;
52494;SDS011;38405;53.212;5.660;2023-03-02T06:57:35;64.38;;;28.77;;
52494;SDS011;38405;53.212;5.660;2023-03-02T07:00:05;59.42;;;27.85;;
52494;SDS011;38405;53.212;5.660;2023-03-02T07:02:45;54.15;;;27.65;;
52494;SDS011;38405;53.212;5.660;2023-03-02T07:05:14;38.78;;;22.33;;
52494;SDS011;38405;53.212;5.660;2023-03-02T07:07:39;45.28;;;24.23;;
52494;SDS011;38405;53.212;5.660;2023-03-02T07:10:06;45.13;;;25.00;;
52494;SDS011;38405;53.212;5.660;2023-03-02T07:12:32;45.65;;;25.25;;
52494;SDS011;38405;53.212;5.660;2023-03-02T07:14:59;45.90;;;24.92;;
52494;SDS011;38405;53.212;5.660;2023-03-02T07:17:24;40.50;;;23.88;;
52494;SDS011;38405;53.212;5.660;2023-03-02T07:19:50;40.35;;;22.38;;
52494;SDS011;38405;53.212;5.660;2023-03-02T07:22:16;44.78;;;22.98;;
52494;SDS011;38405;53.212;5.660;2023-03-02T07:24:44;40.95;;;22.88;;
52494;SDS011;38405;53.212;5.660;2023-03-02T07:27:09;39.70;;;21.58;;
52494;SDS011;38405;53.212;5.660;2023-03-02T07:29:35;33.83;;;21.08;;
52494;SDS011;38405;53.212;5.660;2023-03-02T07:32:01;40.63;;;19.75;;
52494;SDS011;38405;53.212;5.660;2023-03-02T07:34:26;38.88;;;21.95;;
52494;SDS011;38405;53.212;5.660;2023-03-02T07:36:52;43.88;;;23.70;;
52494;SDS011;38405;53.212;5.660;2023-03-02T07:39:21;38.35;;;23.10;;
52494;SDS011;38405;53.212;5.660;2023-03-02T07:41:47;37.80;;;22.75;;
52494;SDS011;38405;53.212;5.660;2023-03-02T07:44:13;40.35;;;20.38;;
52494;SDS011;38405;53.212;5.660;2023-03-02T07:46:39;33.75;;;20.23;;
52494;SDS011;38405;53.212;5.660;2023-03-02T07:49:05;40.00;;;22.13;;
52494;SDS011;38405;53.212;5.660;2023-03-02T07:51:30;44.95;;;24.83;;
52494;SDS011;38405;53.212;5.660;2023-03-02T07:53:56;42.03;;;22.05;;
52494;SDS011;38405;53.212;5.660;2023-03-02T07:56:22;44.30;;;23.77;;
52494;SDS011;38405;53.212;5.660;2023-03-02T07:58:47;37.97;;;20.60;;
52494;SDS011;38405;53.212;5.660;2023-03-02T08:01:13;38.35;;;21.00;;
52494;SDS011;38405;53.212;5.660;2023-03-02T08:03:38;41.20;;;22.92;;
52494;SDS011;38405;53.212;5.660;2023-03-02T08:06:05;48.13;;;23.52;;
52494;SDS011;38405;53.212;5.660;2023-03-02T08:08:34;43.72;;;22.92;;
52494;SDS011;38405;53.212;5.660;2023-03-02T08:11:04;37.75;;;20.63;;
52494;SDS011;38405;53.212;5.660;2023-03-02T08:13:38;41.38;;;22.33;;
52494;SDS011;38405;53.212;5.660;2023-03-02T08:16:05;37.35;;;22.10;;
52494;SDS011;38405;53.212;5.660;2023-03-02T08:18:32;38.15;;;21.40;;
52494;SDS011;38405;53.212;5.660;2023-03-02T08:21:02;41.30;;;21.50;;
52494;SDS011;38405;53.212;5.660;2023-03-02T08:23:28;44.15;;;24.45;;
52494;SDS011;38405;53.212;5.660;2023-03-02T08:25:54;40.28;;;22.42;;
52494;SDS011;38405;53.212;5.660;2023-03-02T08:28:21;41.92;;;22.75;;
52494;SDS011;38405;53.212;5.660;2023-03-02T08:30:59;39.60;;;23.52;;
52494;SDS011;38405;53.212;5.660;2023-03-02T08:33:27;41.45;;;22.23;;
52494;SDS011;38405;53.212;5.660;2023-03-02T08:35:57;44.35;;;24.38;;
52494;SDS011;38405;53.212;5.660;2023-03-02T08:38:25;36.10;;;19.60;;
52494;SDS011;38405;53.212;5.660;2023-03-02T08:40:52;41.67;;;21.00;;
52494;SDS011;38405;53.212;5.660;2023-03-02T08:43:18;35.20;;;19.23;;
52494;SDS011;38405;53.212;5.660;2023-03-02T08:45:45;38.97;;;21.27;;
52494;SDS011;38405;53.212;5.660;2023-03-02T08:48:17;35.80;;;20.83;;
52494;SDS011;38405;53.212;5.660;2023-03-02T08:50:44;34.97;;;20.77;;
52494;SDS011;38405;53.212;5.660;2023-03-02T08:53:17;35.45;;;17.85;;
52494;SDS011;38405;53.212;5.660;2023-03-02T08:55:43;33.08;;;20.10;;
52494;SDS011;38405;53.212;5.660;2023-03-02T08:58:08;39.80;;;20.73;;
52494;SDS011;38405;53.212;5.660;2023-03-02T09:00:34;35.55;;;20.48;;
52494;SDS011;38405;53.212;5.660;2023-03-02T09:03:00;38.40;;;21.25;;
52494;SDS011;38405;53.212;5.660;2023-03-02T09:05:26;32.40;;;17.92;;
52494;SDS011;38405;53.212;5.660;2023-03-02T09:07:52;34.75;;;19.73;;
52494;SDS011;38405;53.212;5.660;2023-03-02T09:10:17;37.28;;;20.42;;
52494;SDS011;38405;53.212;5.660;2023-03-02T09:12:43;38.67;;;18.35;;
52494;SDS011;38405;53.212;5.660;2023-03-02T09:15:12;36.13;;;19.27;;
52494;SDS011;38405;53.212;5.660;2023-03-02T09:17:37;31.50;;;17.63;;
52494;SDS011;38405;53.212;5.660;2023-03-02T09:20:03;37.88;;;19.63;;
52494;SDS011;38405;53.212;5.660;2023-03-02T09:22:29;36.22;;;20.02;;
52494;SDS011;38405;53.212;5.660;2023-03-02T09:24:55;37.28;;;19.55;;
52494;SDS011;38405;53.212;5.660;2023-03-02T09:27:21;38.63;;;22.38;;
52494;SDS011;38405;53.212;5.660;2023-03-02T09:29:46;36.40;;;20.13;;
52494;SDS011;38405;53.212;5.660;2023-03-02T09:32:12;36.92;;;21.27;;
52494;SDS011;38405;53.212;5.660;2023-03-02T09:34:39;34.10;;;19.40;;
52494;SDS011;38405;53.212;5.660;2023-03-02T09:37:05;34.33;;;19.90;;
52494;SDS011;38405;53.212;5.660;2023-03-02T09:39:31;36.38;;;20.75;;
52494;SDS011;38405;53.212;5.660;2023-03-02T09:52:48;30.42;;;17.13;;
52494;SDS011;38405;53.212;5.660;2023-03-02T09:55:24;28.90;;;17.95;;
52494;SDS011;38405;53.212;5.660;2023-03-02T09:57:52;33.80;;;17.88;;
52494;SDS011;38405;53.212;5.660;2023-03-02T10:00:36;33.03;;;18.25;;
52494;SDS011;38405;53.212;5.660;2023-03-02T10:03:06;30.25;;;17.98;;
52494;SDS011;38405;53.212;5.660;2023-03-02T10:05:47;29.65;;;16.48;;
52494;SDS011;38405;53.212;5.660;2023-03-02T10:08:33;31.17;;;18.27;;
52494;SDS011;38405;53.212;5.660;2023-03-02T10:11:11;29.02;;;17.77;;
52494;SDS011;38405;53.212;5.660;2023-03-02T10:24:43;29.02;;;17.48;;
52494;SDS011;38405;53.212;5.660;2023-03-02T10:27:23;30.10;;;16.95;;
52494;SDS011;38405;53.212;5.660;2023-03-02T10:32:54;27.25;;;17.23;;
52494;SDS011;38405;53.212;5.660;2023-03-02T10:35:25;28.67;;;16.25;;
52494;SDS011;38405;53.212;5.660;2023-03-02T10:38:00;27.92;;;16.95;;
52494;SDS011;38405;53.212;5.660;2023-03-02T10:46:12;30.67;;;17.77;;
52494;SDS011;38405;53.212;5.660;2023-03-02T10:52:00;28.92;;;17.73;;
52494;SDS011;38405;53.212;5.660;2023-03-02T10:54:34;29.70;;;17.33;;
52494;SDS011;38405;53.212;5.660;2023-03-02T10:57:04;29.55;;;17.23;;
52494;SDS011;38405;53.212;5.660;2023-03-02T10:59:46;30.13;;;17.63;;
52494;SDS011;38405;53.212;5.660;2023-03-02T11:02:18;31.95;;;17.60;;
52494;SDS011;38405;53.212;5.660;2023-03-02T11:05:25;29.50;;;17.38;;
52494;SDS011;38405;53.212;5.660;2023-03-02T11:07:53;28.15;;;15.68;;
52494;SDS011;38405;53.212;5.660;2023-03-02T11:10:34;27.98;;;15.90;;
52494;SDS011;38405;53.212;5.660;2023-03-02T11:13:05;27.05;;;14.93;;
52494;SDS011;38405;53.212;5.660;2023-03-02T11:15:48;25.80;;;15.02;;
52494;SDS011;38405;53.212;5.660;2023-03-02T11:21:12;29.92;;;16.13;;
52494;SDS011;38405;53.212;5.660;2023-03-02T11:23:51;27.10;;;14.43;;
52494;SDS011;38405;53.212;5.660;2023-03-02T11:40:53;33.42;;;16.75;;
52494;SDS011;38405;53.212;5.660;2023-03-02T11:43:24;36.13;;;17.83;;
52494;SDS011;38405;53.212;5.660;2023-03-02T11:45:59;32.47;;;16.77;;
52494;SDS011;38405;53.212;5.660;2023-03-02T11:53:40;31.75;;;15.45;;
52494;SDS011;38405;53.212;5.660;2023-03-02T11:56:22;27.75;;;15.05;;
52494;SDS011;38405;53.212;5.660;2023-03-02T11:58:52;31.65;;;15.43;;
52494;SDS011;38405;53.212;5.660;2023-03-02T12:01:23;26.08;;;14.02;;
52494;SDS011;38405;53.212;5.660;2023-03-02T12:03:50;33.08;;;14.80;;
52494;SDS011;38405;53.212;5.660;2023-03-02T12:08:46;31.20;;;14.18;;
52494;SDS011;38405;53.212;5.660;2023-03-02T12:13:56;25.80;;;13.52;;
52494;SDS011;38405;53.212;5.660;2023-03-02T12:21:58;28.25;;;12.65;;
52494;SDS011;38405;53.212;5.660;2023-03-02T12:24:30;22.98;;;12.18;;
52494;SDS011;38405;53.212;5.660;2023-03-02T12:27:43;28.65;;;14.07;;
52494;SDS011;38405;53.212;5.660;2023-03-02T12:32:39;23.45;;;12.32;;
52494;SDS011;38405;53.212;5.660;2023-03-02T12:37:52;24.38;;;13.68;;
52494;SDS011;38405;53.212;5.660;2023-03-02T12:52:27;22.50;;;12.43;;
52494;SDS011;38405;53.212;5.660;2023-03-02T12:55:00;22.13;;;12.55;;
52494;SDS011;38405;53.212;5.660;2023-03-02T12:57:37;20.70;;;12.23;;
52494;SDS011;38405;53.212;5.660;2023-03-02T13:00:14;21.10;;;11.60;;
52494;SDS011;38405;53.212;5.660;2023-03-02T13:02:44;18.35;;;11.68;;
52494;SDS011;38405;53.212;5.660;2023-03-02T13:05:16;19.63;;;9.88;;
52494;SDS011;38405;53.212;5.660;2023-03-02T13:07:53;13.85;;;8.90;;
52494;SDS011;38405;53.212;5.660;2023-03-02T13:13:19;12.60;;;7.38;;
52494;SDS011;38405;53.212;5.660;2023-03-02T13:15:53;11.73;;;7.57;;
52494;SDS011;38405;53.212;5.660;2023-03-02T13:18:22;12.85;;;7.75;;
52494;SDS011;38405;53.212;5.660;2023-03-02T13:20:49;12.93;;;7.70;;
52494;SDS011;38405;53.212;5.660;2023-03-02T13:23:16;9.82;;;7.03;;
52494;SDS011;38405;53.212;5.660;2023-03-02T13:25:59;10.52;;;7.22;;
52494;SDS011;38405;53.212;5.660;2023-03-02T13:28:27;9.40;;;6.22;;
52494;SDS011;38405;53.212;5.660;2023-03-02T13:33:30;12.85;;;7.53;;
52494;SDS011;38405;53.212;5.660;2023-03-02T13:35:57;11.25;;;6.57;;
52494;SDS011;38405;53.212;5.660;2023-03-02T13:38:24;11.70;;;7.50;;
52494;SDS011;38405;53.212;5.660;2023-03-02T13:40:55;11.93;;;7.60;;
52494;SDS011;38405;53.212;5.660;2023-03-02T13:43:37;11.40;;;7.63;;
52494;SDS011;38405;53.212;5.660;2023-03-02T13:46:04;12.05;;;7.13;;
52494;SDS011;38405;53.212;5.660;2023-03-02T13:48:56;10.80;;;7.60;;
52494;SDS011;38405;53.212;5.660;2023-03-02T13:51:23;11.55;;;7.13;;
52494;SDS011;38405;53.212;5.660;2023-03-02T13:56:19;11.48;;;7.20;;
52494;SDS011;38405;53.212;5.660;2023-03-02T13:58:48;10.85;;;7.78;;
52494;SDS011;38405;53.212;5.660;2023-03-02T14:01:14;12.57;;;7.78;;
52494;SDS011;38405;53.212;5.660;2023-03-02T14:03:39;12.15;;;7.85;;
52494;SDS011;38405;53.212;5.660;2023-03-02T14:06:05;10.13;;;7.25;;
52494;SDS011;38405;53.212;5.660;2023-03-02T14:08:31;10.63;;;7.18;;
52494;SDS011;38405;53.212;5.660;2023-03-02T14:10:57;10.13;;;7.20;;
52494;SDS011;38405;53.212;5.660;2023-03-02T14:13:27;10.23;;;7.00;;
52494;SDS011;38405;53.212;5.660;2023-03-02T14:15:59;10.15;;;7.20;;
52494;SDS011;38405;53.212;5.660;2023-03-02T14:18:31;9.82;;;7.25;;
52494;SDS011;38405;53.212;5.660;2023-03-02T14:21:03;11.43;;;7.45;;
52494;SDS011;38405;53.212;5.660;2023-03-02T14:23:29;9.20;;;6.78;;
52494;SDS011;38405;53.212;5.660;2023-03-02T14:25:55;12.25;;;7.60;;
52494;SDS011;38405;53.212;5.660;2023-03-02T14:28:22;10.25;;;7.75;;
52494;SDS011;38405;53.212;5.660;2023-03-02T14:30:52;12.65;;;6.82;;
52494;SDS011;38405;53.212;5.660;2023-03-02T14:33:20;12.65;;;7.78;;
52494;SDS011;38405;53.212;5.660;2023-03-02T14:35:47;11.82;;;7.30;;
52494;SDS011;38405;53.212;5.660;2023-03-02T14:38:14;10.80;;;7.40;;
52494;SDS011;38405;53.212;5.660;2023-03-02T14:40:40;10.30;;;6.82;;
52494;SDS011;38405;53.212;5.660;2023-03-02T14:43:07;11.05;;;7.80;;
52494;SDS011;38405;53.212;5.660;2023-03-02T14:45:33;8.77;;;6.07;;
52494;SDS011;38405;53.212;5.660;2023-03-02T14:47:59;10.88;;;7.00;;
52494;SDS011;38405;53.212;5.660;2023-03-02T14:50:25;10.73;;;8.20;;
52494;SDS011;38405;53.212;5.660;2023-03-02T14:52:51;10.30;;;7.22;;
52494;SDS011;38405;53.212;5.660;2023-03-02T14:55:21;8.88;;;6.38;;
52494;SDS011;38405;53.212;5.660;2023-03-02T14:58:32;8.23;;;6.20;;
52494;SDS011;38405;53.212;5.660;2023-03-02T15:00:44;10.48;;;7.70;;
52494;SDS011;38405;53.212;5.660;2023-03-02T15:03:14;9.65;;;6.82;;
52494;SDS011;38405;53.212;5.660;2023-03-02T15:05:44;9.43;;;7.05;;
52494;SDS011;38405;53.212;5.660;2023-03-02T15:08:11;11.90;;;7.28;;
52494;SDS011;38405;53.212;5.660;2023-03-02T15:10:37;11.48;;;7.38;;
52494;SDS011;38405;53.212;5.660;2023-03-02T15:13:06;11.90;;;7.57;;
52494;SDS011;38405;53.212;5.660;2023-03-02T15:15:36;16.50;;;7.63;;
52494;SDS011;38405;53.212;5.660;2023-03-02T15:18:02;10.55;;;7.40;;
52494;SDS011;38405;53.212;5.660;2023-03-02T15:20:28;12.55;;;8.70;;
52494;SDS011;38405;53.212;5.660;2023-03-02T15:23:00;11.65;;;8.90;;
52494;SDS011;38405;53.212;5.660;2023-03-02T15:25:26;14.10;;;9.75;;
52494;SDS011;38405;53.212;5.660;2023-03-02T15:27:53;13.45;;;8.50;;
52494;SDS011;38405;53.212;5.660;2023-03-02T15:30:19;13.32;;;8.27;;
52494;SDS011;38405;53.212;5.660;2023-03-02T15:32:45;9.85;;;7.50;;
52494;SDS011;38405;53.212;5.660;2023-03-02T15:35:12;11.32;;;8.13;;
52494;SDS011;38405;53.212;5.660;2023-03-02T15:37:37;11.15;;;7.95;;
52494;SDS011;38405;53.212;5.660;2023-03-02T15:40:06;11.40;;;8.23;;
52494;SDS011;38405;53.212;5.660;2023-03-02T15:42:33;14.80;;;8.77;;
52494;SDS011;38405;53.212;5.660;2023-03-02T15:44:59;13.18;;;8.35;;
52494;SDS011;38405;53.212;5.660;2023-03-02T15:47:28;13.63;;;8.98;;
52494;SDS011;38405;53.212;5.660;2023-03-02T15:49:53;14.85;;;9.77;;
52494;SDS011;38405;53.212;5.660;2023-03-02T15:52:19;19.27;;;10.50;;
52494;SDS011;38405;53.212;5.660;2023-03-02T15:54:45;14.93;;;9.40;;
52494;SDS011;38405;53.212;5.660;2023-03-02T15:57:11;12.07;;;7.60;;
52494;SDS011;38405;53.212;5.660;2023-03-02T15:59:36;14.18;;;8.32;;
52494;SDS011;38405;53.212;5.660;2023-03-02T16:02:02;17.52;;;8.90;;
52494;SDS011;38405;53.212;5.660;2023-03-02T16:04:29;16.25;;;9.00;;
52494;SDS011;38405;53.212;5.660;2023-03-02T16:06:56;12.55;;;8.10;;
52494;SDS011;38405;53.212;5.660;2023-03-02T16:09:26;21.38;;;9.80;;
52494;SDS011;38405;53.212;5.660;2023-03-02T16:11:53;15.15;;;10.15;;
52494;SDS011;38405;53.212;5.660;2023-03-02T16:14:20;16.70;;;8.93;;
52494;SDS011;38405;53.212;5.660;2023-03-02T16:16:45;12.48;;;8.13;;
52494;SDS011;38405;53.212;5.660;2023-03-02T16:19:12;14.05;;;10.18;;
52494;SDS011;38405;53.212;5.660;2023-03-02T16:21:39;13.57;;;9.02;;
52494;SDS011;38405;53.212;5.660;2023-03-02T16:24:05;15.23;;;9.27;;